createdAt,value
2022-10-23T00:02:08.877Z,94.08
2022-10-23T00:04:36.447Z,94.44
2022-10-23T00:07:03.982Z,94.33
2022-10-23T00:09:31.641Z,94.33
2022-10-23T00:11:59.190Z,94.33
2022-10-23T00:14:28.245Z,94.21
2022-10-23T00:16:55.809Z,94.05
2022-10-23T00:19:23.409Z,94.19
2022-10-23T00:21:51.036Z,94.26
2022-10-23T00:24:18.671Z,94.18
2022-10-23T00:26:46.314Z,94.00
2022-10-23T00:29:13.902Z,94.05
2022-10-23T00:31:42.801Z,93.79
2022-10-23T00:34:10.998Z,93.99
2022-10-23T00:36:38.978Z,93.81
2022-10-23T00:39:06.980Z,93.97
2022-10-23T00:41:34.676Z,93.84
2022-10-23T00:44:06.045Z,94.04
2022-10-23T00:46:34.405Z,94.06
2022-10-23T00:49:04.698Z,93.83
2022-10-23T00:51:37.315Z,93.65
2022-10-23T00:54:23.410Z,93.30
2022-10-23T00:56:53.578Z,93.74
2022-10-23T00:59:21.172Z,93.82
2022-10-23T01:01:49.117Z,93.53
2022-10-23T01:04:18.859Z,93.51
2022-10-23T01:06:54.346Z,92.98
2022-10-23T01:09:30.141Z,93.07
2022-10-23T01:12:01.965Z,93.47
2022-10-23T01:14:35.706Z,93.15
2022-10-23T01:17:10.173Z,93.15
2022-10-23T01:19:56.998Z,93.60
2022-10-23T01:22:39.297Z,93.62
2022-10-23T01:25:21.633Z,93.37
2022-10-23T01:27:53.921Z,93.52
2022-10-23T01:30:21.916Z,93.56
2022-10-23T01:32:53.813Z,93.31
2022-10-23T01:35:25.486Z,93.37
2022-10-23T01:37:57.145Z,93.40
2022-10-23T01:40:30.251Z,93.41
2022-10-23T01:43:05.487Z,93.67
2022-10-23T01:45:38.782Z,93.19
2022-10-23T01:48:10.900Z,93.48
2022-10-23T01:50:41.106Z,93.62
2022-10-23T01:53:08.925Z,93.85
2022-10-23T01:58:10.078Z,93.99
2022-10-23T02:00:40.813Z,93.65
2022-10-23T02:03:10.425Z,93.95
2022-10-23T02:05:39.220Z,93.89
2022-10-23T02:08:07.953Z,93.95
2022-10-23T02:10:42.654Z,93.86
2022-10-23T02:13:17.608Z,93.88
2022-10-23T02:15:49.835Z,94.00
2022-10-23T02:18:35.358Z,94.01
2022-10-23T02:21:08.626Z,93.85
2022-10-23T02:23:40.581Z,94.10
2022-10-23T02:26:11.913Z,94.00
2022-10-23T02:28:45.602Z,94.20
2022-10-23T02:31:17.009Z,94.07
2022-10-23T02:33:45.553Z,94.21
2022-10-23T02:36:13.308Z,94.28
2022-10-23T02:38:42.914Z,93.96
2022-10-23T02:41:36.318Z,94.23
2022-10-23T02:44:24.744Z,94.15
2022-10-23T02:46:57.637Z,94.42
2022-10-23T02:49:32.569Z,94.20
2022-10-23T02:52:09.550Z,94.44
2022-10-23T02:54:52.334Z,93.93
2022-10-23T02:57:27.398Z,94.47
2022-10-23T03:00:04.340Z,94.45
2022-10-23T03:02:37.608Z,94.25
2022-10-23T03:05:08.892Z,94.22
2022-10-23T03:07:37.313Z,94.33
2022-10-23T03:10:05.249Z,94.22
2022-10-23T03:12:33.140Z,94.18
2022-10-23T03:15:02.239Z,94.36
2022-10-23T03:17:29.792Z,94.20
2022-10-23T03:19:57.329Z,94.27
2022-10-23T03:22:24.937Z,94.14
2022-10-23T03:24:52.690Z,94.13
2022-10-23T03:27:20.258Z,94.15
2022-10-23T03:29:47.894Z,94.02
2022-10-23T03:32:16.947Z,93.61
2022-10-23T03:34:44.520Z,94.12
2022-10-23T03:37:12.067Z,94.16
2022-10-23T03:39:39.611Z,93.89
2022-10-23T03:42:07.358Z,94.24
2022-10-23T03:44:35.138Z,94.47
2022-10-23T03:47:02.716Z,94.33
2022-10-23T03:49:31.789Z,93.53
2022-10-23T03:51:59.459Z,93.55
2022-10-23T03:54:28.089Z,93.77
2022-10-23T03:56:57.482Z,93.82
2022-10-23T03:59:25.531Z,93.55
2022-10-23T04:01:53.194Z,93.96
2022-10-23T04:04:20.852Z,93.79
2022-10-23T04:06:49.827Z,93.82
2022-10-23T04:09:17.663Z,93.94
2022-10-23T04:11:45.375Z,94.35
2022-10-23T04:14:14.140Z,94.45
2022-10-23T04:16:41.809Z,94.59
2022-10-23T04:19:10.170Z,94.59
2022-10-23T04:21:37.759Z,94.29
2022-10-23T04:24:07.530Z,93.36
2022-10-23T04:26:35.253Z,93.07
2022-10-23T04:29:03.028Z,93.53
2022-10-23T04:31:30.657Z,93.61
2022-10-23T04:33:58.615Z,93.71
2022-10-23T04:36:26.231Z,93.96
2022-10-23T04:38:54.190Z,93.75
2022-10-23T04:41:23.101Z,93.67
2022-10-23T04:43:50.914Z,93.47
2022-10-23T04:46:18.546Z,93.94
2022-10-23T04:48:46.138Z,94.18
2022-10-23T04:51:13.839Z,93.78
2022-10-23T04:53:41.406Z,93.21
2022-10-23T04:56:09.298Z,92.97
2022-10-23T04:58:38.303Z,93.31
2022-10-23T05:01:07.318Z,93.85
2022-10-23T05:03:35.186Z,93.32
2022-10-23T05:06:02.769Z,93.37
2022-10-23T05:08:30.379Z,93.81
2022-10-23T05:10:58.109Z,93.66
2022-10-23T05:13:25.789Z,93.38
2022-10-23T05:15:55.055Z,92.96
2022-10-23T05:18:26.839Z,92.95
2022-10-23T05:21:00.180Z,93.06
2022-10-23T05:23:29.069Z,93.00
2022-10-23T05:25:56.646Z,93.30
2022-10-23T05:28:24.405Z,93.18
2022-10-23T05:30:52.225Z,93.26
2022-10-23T05:33:21.281Z,92.89
2022-10-23T05:35:49.041Z,91.71
2022-10-23T05:38:17.345Z,92.20
2022-10-23T05:40:45.144Z,91.61
2022-10-23T05:43:12.698Z,91.47
2022-10-23T05:45:40.289Z,91.45
2022-10-23T05:48:11.348Z,91.24
2022-10-23T05:50:51.242Z,91.52
2022-10-23T05:53:18.817Z,91.42
2022-10-23T05:55:46.388Z,91.34
2022-10-23T05:58:14.004Z,91.43
2022-10-23T06:00:41.540Z,91.53
2022-10-23T06:03:09.122Z,91.11
2022-10-23T06:05:36.825Z,91.51
2022-10-23T06:08:06.133Z,91.69
2022-10-23T06:10:33.880Z,91.51
2022-10-23T06:13:01.445Z,91.83
2022-10-23T06:15:29.093Z,91.67
2022-10-23T06:17:56.677Z,92.50
2022-10-23T06:20:27.887Z,92.11
2022-10-23T06:22:56.479Z,92.76
2022-10-23T06:25:25.428Z,93.12
2022-10-23T06:27:52.976Z,93.10
2022-10-23T06:30:20.539Z,93.08
2022-10-23T06:32:48.493Z,92.74
2022-10-23T06:35:16.175Z,92.25
2022-10-23T06:37:43.792Z,92.16
2022-10-23T06:40:11.725Z,92.17
2022-10-23T06:42:41.105Z,92.48
2022-10-23T06:45:09.570Z,92.79
2022-10-23T06:47:37.091Z,92.67
2022-10-23T06:50:05.365Z,91.99
2022-10-23T06:52:46.491Z,92.22
2022-10-23T06:55:15.497Z,92.19
2022-10-23T06:57:45.067Z,92.25
2022-10-23T07:00:14.481Z,91.83
2022-10-23T07:02:42.473Z,91.28
2022-10-23T07:05:13.514Z,90.39
2022-10-23T07:07:41.617Z,90.21
2022-10-23T07:10:09.535Z,90.05
2022-10-23T07:12:37.158Z,90.42
2022-10-23T07:15:07.306Z,90.59
2022-10-23T07:17:34.870Z,91.02
2022-10-23T07:20:02.662Z,91.18
2022-10-23T07:22:30.275Z,90.71
2022-10-23T07:24:58.214Z,91.93
2022-10-23T07:27:26.096Z,90.77
2022-10-23T07:29:54.098Z,89.57
2022-10-23T07:32:24.302Z,90.01
2022-10-23T07:34:51.891Z,90.39
2022-10-23T07:37:19.481Z,90.95
2022-10-23T07:39:47.245Z,90.60
2022-10-23T07:42:14.818Z,90.08
2022-10-23T07:44:42.379Z,89.21
2022-10-23T07:47:10.159Z,89.28
2022-10-23T07:49:39.131Z,89.27
2022-10-23T07:52:07.271Z,90.23
2022-10-23T07:54:35.233Z,89.09
2022-10-23T07:57:02.828Z,89.77
2022-10-23T07:59:33.395Z,87.85
2022-10-23T08:02:03.403Z,87.55
2022-10-23T08:04:31.101Z,86.99
2022-10-23T08:07:01.325Z,86.30
2022-10-23T08:09:28.891Z,86.19
2022-10-23T08:11:56.488Z,85.66
2022-10-23T08:14:24.422Z,84.25
2022-10-23T08:16:52.039Z,85.11
2022-10-23T08:19:19.948Z,82.24
2022-10-23T08:21:47.637Z,84.21
2022-10-23T08:24:16.618Z,81.17
2022-10-23T08:26:44.399Z,79.42
2022-10-23T08:29:12.023Z,81.27
2022-10-23T08:31:39.567Z,80.34
2022-10-23T08:34:07.155Z,79.50
2022-10-23T08:36:36.366Z,78.91
2022-10-23T08:39:03.962Z,79.12
2022-10-23T08:41:36.550Z,78.20
2022-10-23T08:44:10.833Z,77.42
2022-10-23T08:46:43.197Z,77.98
2022-10-23T08:49:25.331Z,77.03
2022-10-23T08:51:56.741Z,76.74
2022-10-23T08:54:29.424Z,76.97
2022-10-23T08:57:05.046Z,76.73
2022-10-23T08:59:39.644Z,75.55
2022-10-23T09:02:17.558Z,76.37
2022-10-23T09:04:48.470Z,76.49
2022-10-23T09:07:29.484Z,75.45
2022-10-23T09:10:11.502Z,74.03
2022-10-23T09:12:40.735Z,73.19
2022-10-23T09:15:21.349Z,71.33
2022-10-23T09:17:55.000Z,70.56
2022-10-23T09:20:26.165Z,70.95
2022-10-23T09:22:56.840Z,70.42
2022-10-23T09:25:26.688Z,70.70
2022-10-23T09:28:00.187Z,67.56
2022-10-23T09:30:35.389Z,65.23
2022-10-23T09:33:15.518Z,65.28
2022-10-23T09:35:54.631Z,65.25
2022-10-23T09:38:28.678Z,67.23
2022-10-23T09:40:56.567Z,69.00
2022-10-23T09:43:27.644Z,70.05
2022-10-23T09:45:59.908Z,70.76
2022-10-23T09:48:27.901Z,71.48
2022-10-23T09:50:57.555Z,71.88
2022-10-23T09:53:33.117Z,71.63
2022-10-23T09:56:03.263Z,71.75
2022-10-23T09:58:35.103Z,72.55
2022-10-23T10:01:04.082Z,72.75
2022-10-23T10:03:31.846Z,72.99
2022-10-23T10:06:02.307Z,72.82
2022-10-23T10:08:40.324Z,73.40
2022-10-23T10:11:16.886Z,72.87
2022-10-23T10:14:29.178Z,75.11
2022-10-23T10:17:04.572Z,74.61
2022-10-23T10:19:48.411Z,75.14
2022-10-23T10:22:29.822Z,74.25
2022-10-23T10:25:03.943Z,73.70
2022-10-23T10:27:46.626Z,72.66
2022-10-23T10:30:17.355Z,72.44
2022-10-23T10:32:51.512Z,72.92
2022-10-23T10:35:35.321Z,72.56
2022-10-23T10:38:25.145Z,69.30
2022-10-23T10:41:10.659Z,66.79
2022-10-23T10:43:47.675Z,63.57
2022-10-23T10:46:24.888Z,64.14
2022-10-23T10:49:01.045Z,64.37
2022-10-23T10:51:34.339Z,65.21
2022-10-23T10:54:16.243Z,64.88
2022-10-23T10:56:46.737Z,65.75
2022-10-23T10:59:19.856Z,66.17
2022-10-23T11:01:55.366Z,67.40
2022-10-23T11:04:33.138Z,67.55
2022-10-23T11:07:06.543Z,69.52
2022-10-23T11:09:34.284Z,69.86
2022-10-23T11:12:02.187Z,66.83
2022-10-23T11:14:33.143Z,65.47
2022-10-23T11:17:05.538Z,64.72
2022-10-23T11:19:40.879Z,65.79
2022-10-23T11:22:17.662Z,63.36
2022-10-23T11:25:04.538Z,59.89
2022-10-23T11:28:03.391Z,56.59
2022-10-23T11:30:37.118Z,53.75
2022-10-23T11:33:27.239Z,55.67
2022-10-23T11:36:05.347Z,57.24
2022-10-23T11:38:35.944Z,56.59
2022-10-23T11:41:06.587Z,58.29
2022-10-23T11:43:37.079Z,60.18
2022-10-23T11:46:16.110Z,58.61
2022-10-23T11:48:44.826Z,57.63
2022-10-23T11:51:30.510Z,55.17
2022-10-23T11:54:22.298Z,52.28
2022-10-23T11:56:54.798Z,51.74
2022-10-23T11:59:27.135Z,50.26
2022-10-23T12:01:57.686Z,49.78
2022-10-23T12:04:29.019Z,48.43
2022-10-23T12:07:00.987Z,49.31
2022-10-23T12:09:32.483Z,48.72
2022-10-23T12:12:16.795Z,51.96
2022-10-23T12:14:47.425Z,52.63
2022-10-23T12:17:33.554Z,55.06
2022-10-23T12:20:19.242Z,55.54
2022-10-23T12:22:55.899Z,54.63
2022-10-23T12:25:29.214Z,54.84
2022-10-23T12:28:05.712Z,54.75
2022-10-23T12:30:43.350Z,54.20
2022-10-23T12:33:27.502Z,53.87
2022-10-23T12:36:10.338Z,52.89
2022-10-23T12:38:46.120Z,52.01
2022-10-23T12:41:16.898Z,52.46
2022-10-23T12:43:50.709Z,50.01
2022-10-23T12:46:30.075Z,49.24
2022-10-23T12:48:59.117Z,51.57
2022-10-23T12:51:29.296Z,53.36
2022-10-23T12:53:58.597Z,56.24
2022-10-23T12:56:28.614Z,56.85
2022-10-23T12:59:01.528Z,57.09
2022-10-23T13:01:31.114Z,56.68
2022-10-23T13:04:00.671Z,56.09
2022-10-23T13:06:28.901Z,55.58
2022-10-23T13:08:58.466Z,55.45
2022-10-23T13:11:27.750Z,53.99
2022-10-23T13:13:55.385Z,54.31
2022-10-23T13:16:24.865Z,54.27
2022-10-23T13:18:54.042Z,54.72
2022-10-23T13:21:24.331Z,56.38
2022-10-23T13:23:52.794Z,58.25
2022-10-23T13:26:32.275Z,58.47
2022-10-23T13:29:02.284Z,59.97
2022-10-23T13:31:34.266Z,60.91
2022-10-23T13:34:18.788Z,60.26
2022-10-23T13:37:02.011Z,60.52
2022-10-23T13:39:32.641Z,62.05
2022-10-23T13:42:12.439Z,62.50
2022-10-23T13:44:40.587Z,62.25
2022-10-23T13:47:13.391Z,62.48
2022-10-23T13:49:40.987Z,62.71
2022-10-23T13:52:12.064Z,61.86
2022-10-23T13:54:39.687Z,61.63
2022-10-23T13:57:14.246Z,61.72
2022-10-23T13:59:41.919Z,62.25
2022-10-23T14:02:19.062Z,61.91
2022-10-23T14:04:47.170Z,62.30
2022-10-23T14:07:14.813Z,62.26
2022-10-23T14:09:42.382Z,62.45
2022-10-23T14:12:13.462Z,61.12
2022-10-23T14:14:41.121Z,61.94
2022-10-23T14:17:08.783Z,60.99
2022-10-23T14:22:05.121Z,60.75
2022-10-23T14:24:32.719Z,61.19
2022-10-23T14:27:00.367Z,61.58
2022-10-23T14:29:29.476Z,62.23
2022-10-23T14:31:57.010Z,61.02
2022-10-23T14:34:24.571Z,60.50
2022-10-23T14:37:07.240Z,60.45
2022-10-23T14:39:36.243Z,61.57
2022-10-23T14:42:03.911Z,62.07
2022-10-23T14:44:32.877Z,61.34
2022-10-23T14:47:00.785Z,61.11
2022-10-23T14:49:28.405Z,63.55
2022-10-23T14:52:21.203Z,60.68
2022-10-23T14:54:48.756Z,62.20
2022-10-23T14:57:17.962Z,60.46
2022-10-23T14:59:46.910Z,60.89
2022-10-23T15:02:15.277Z,60.20
2022-10-23T15:04:43.045Z,60.14
2022-10-23T15:07:10.822Z,58.82
2022-10-23T15:09:39.561Z,59.35
2022-10-23T15:12:08.114Z,59.45
2022-10-23T15:14:35.795Z,58.75
2022-10-23T15:17:04.649Z,58.87
2022-10-23T15:19:32.186Z,58.92
2022-10-23T15:21:59.778Z,59.03
2022-10-23T15:24:27.577Z,58.71
2022-10-23T15:26:55.210Z,58.65
2022-10-23T15:29:22.958Z,59.62
2022-10-23T15:31:54.522Z,61.70
2022-10-23T15:34:26.034Z,62.50
2022-10-23T15:36:54.661Z,63.64
2022-10-23T15:39:24.972Z,65.31
2022-10-23T15:41:54.321Z,64.62
2022-10-23T15:44:24.896Z,65.55
2022-10-23T15:46:53.228Z,65.88
2022-10-23T15:49:21.114Z,64.79
2022-10-23T15:51:50.018Z,65.85
2022-10-23T15:54:20.165Z,66.94
2022-10-23T15:56:49.711Z,65.77
2022-10-23T15:59:18.503Z,65.38
2022-10-23T16:01:46.272Z,65.48
2022-10-23T16:04:14.717Z,66.93
2022-10-23T16:06:42.778Z,69.21
2022-10-23T16:09:12.450Z,70.36
2022-10-23T16:11:42.357Z,71.25
2022-10-23T16:14:13.464Z,71.23
2022-10-23T16:16:41.358Z,71.92
2022-10-23T16:19:09.239Z,72.16
2022-10-23T16:21:37.418Z,73.26
2022-10-23T16:24:07.994Z,73.55
2022-10-23T16:26:37.633Z,74.24
2022-10-23T16:29:08.397Z,74.53
2022-10-23T16:31:36.468Z,75.45
2022-10-23T16:34:05.838Z,75.40
2022-10-23T16:36:33.955Z,75.89
2022-10-23T16:39:02.897Z,76.31
2022-10-23T16:41:30.508Z,76.72
2022-10-23T16:43:59.698Z,77.25
2022-10-23T16:46:27.774Z,76.58
2022-10-23T16:48:55.351Z,77.42
2022-10-23T16:51:25.709Z,77.30
2022-10-23T16:53:53.739Z,78.01
2022-10-23T16:56:24.151Z,78.27
2022-10-23T16:58:52.095Z,78.55
2022-10-23T17:01:23.172Z,78.92
2022-10-23T17:03:52.434Z,78.63
2022-10-23T17:06:22.275Z,78.42
2022-10-23T17:08:50.500Z,78.18
2022-10-23T17:11:20.596Z,78.50
2022-10-23T17:13:53.625Z,78.77
2022-10-23T17:16:28.274Z,78.83
2022-10-23T17:18:57.663Z,78.25
2022-10-23T17:21:25.686Z,77.96
2022-10-23T17:23:53.502Z,73.10
2022-10-23T17:26:23.124Z,65.67
2022-10-23T17:28:50.861Z,65.36
2022-10-23T17:31:21.471Z,69.48
2022-10-23T17:33:52.397Z,73.51
2022-10-23T17:36:21.711Z,76.38
2022-10-23T17:38:50.769Z,78.38
2022-10-23T17:41:20.452Z,79.85
2022-10-23T17:43:49.587Z,80.99
2022-10-23T17:46:18.319Z,81.61
2022-10-23T17:48:45.910Z,82.01
2022-10-23T17:51:17.778Z,82.43
2022-10-23T17:53:47.705Z,82.80
2022-10-23T17:56:19.076Z,83.08
2022-10-23T17:58:46.711Z,83.51
2022-10-23T18:01:16.073Z,83.44
2022-10-23T18:03:43.950Z,83.43
2022-10-23T18:06:14.061Z,83.64
2022-10-23T18:08:43.852Z,83.14
2022-10-23T18:11:16.356Z,83.15
2022-10-23T18:13:44.062Z,83.29
2022-10-23T18:16:13.209Z,82.26
2022-10-23T18:18:42.315Z,83.86
2022-10-23T18:21:10.310Z,83.68
2022-10-23T18:23:38.292Z,84.11
2022-10-23T18:26:07.763Z,83.82
2022-10-23T18:28:35.515Z,83.71
2022-10-23T18:31:03.147Z,83.47
2022-10-23T18:33:30.800Z,83.37
2022-10-23T18:35:58.439Z,83.17
2022-10-23T18:38:26.181Z,83.16
2022-10-23T18:40:55.839Z,83.56
2022-10-23T18:43:42.568Z,85.09
2022-10-23T18:46:11.734Z,83.38
2022-10-23T18:48:39.554Z,84.93
2022-10-23T18:51:15.702Z,85.60
2022-10-23T18:53:46.497Z,85.53
2022-10-23T18:56:14.850Z,86.67
2022-10-23T18:58:43.922Z,86.86
2022-10-23T19:01:11.928Z,85.57
2022-10-23T19:03:39.966Z,86.57
2022-10-23T19:06:08.298Z,86.04
2022-10-23T19:08:37.773Z,86.23
2022-10-23T19:11:06.516Z,86.14
2022-10-23T19:13:39.029Z,86.50
2022-10-23T19:16:11.932Z,86.46
2022-10-23T19:18:41.627Z,87.40
2022-10-23T19:21:09.903Z,86.25
2022-10-23T19:23:40.403Z,85.80
2022-10-23T19:26:10.411Z,85.05
2022-10-23T19:28:38.677Z,86.81
2022-10-23T19:31:09.809Z,85.94
2022-10-23T19:33:38.899Z,85.46
2022-10-23T19:36:12.627Z,86.42
2022-10-23T19:38:42.210Z,88.17
2022-10-23T19:41:10.033Z,85.54
2022-10-23T19:43:38.688Z,86.46
2022-10-23T19:46:11.199Z,87.07
2022-10-23T19:48:44.129Z,87.01
2022-10-23T19:51:12.834Z,87.49
2022-10-23T19:53:42.528Z,87.32
2022-10-23T19:56:12.577Z,88.47
2022-10-23T19:58:41.235Z,86.79
2022-10-23T20:01:12.419Z,88.91
2022-10-23T20:03:41.175Z,88.48
2022-10-23T20:06:10.442Z,87.57
2022-10-23T20:08:38.170Z,87.56
2022-10-23T20:11:06.767Z,87.08
2022-10-23T20:13:34.992Z,87.14
2022-10-23T20:16:02.814Z,87.77
2022-10-23T20:18:31.843Z,87.50
2022-10-23T20:21:02.510Z,89.43
2022-10-23T20:23:30.247Z,89.48
2022-10-23T20:26:04.873Z,89.36
2022-10-23T20:28:32.473Z,89.03
2022-10-23T20:31:00.797Z,90.78
2022-10-23T20:33:28.399Z,90.27
2022-10-23T20:35:57.352Z,90.26
2022-10-23T20:38:24.883Z,89.95
2022-10-23T20:40:52.413Z,90.48
2022-10-23T20:43:19.984Z,91.70
2022-10-23T20:45:47.501Z,90.95
2022-10-23T20:48:15.036Z,91.23
2022-10-23T20:50:42.569Z,91.88
2022-10-23T20:53:11.479Z,91.98
2022-10-23T20:55:41.988Z,90.63
2022-10-23T20:58:09.597Z,90.37
2022-10-23T21:00:37.235Z,90.44
2022-10-23T21:03:05.297Z,91.14
2022-10-23T21:05:34.420Z,90.93
2022-10-23T21:08:01.971Z,91.38
2022-10-23T21:10:30.844Z,91.70
2022-10-23T21:12:58.412Z,91.15
2022-10-23T21:15:26.329Z,91.58
2022-10-23T21:17:54.093Z,92.44
2022-10-23T21:20:21.602Z,91.83
2022-10-23T21:22:49.142Z,92.30
2022-10-23T21:25:16.766Z,92.58
2022-10-23T21:27:46.479Z,91.86
2022-10-23T21:30:14.569Z,92.36
2022-10-23T21:32:42.135Z,91.13
2022-10-23T21:35:11.258Z,91.64
2022-10-23T21:37:38.818Z,90.51
2022-10-23T21:40:07.894Z,91.06
2022-10-23T21:42:35.492Z,91.20
2022-10-23T21:45:04.914Z,89.15
2022-10-23T21:47:34.775Z,89.79
2022-10-23T21:50:02.393Z,91.23
2022-10-23T21:52:29.937Z,90.84
2022-10-23T21:54:57.506Z,90.05
2022-10-23T21:57:25.098Z,90.44
2022-10-23T21:59:55.122Z,89.94
2022-10-23T22:02:24.128Z,90.19
2022-10-23T22:04:52.078Z,90.99
2022-10-23T22:07:19.768Z,91.48
2022-10-23T22:09:47.370Z,90.74
2022-10-23T22:12:14.994Z,90.58
2022-10-23T22:14:42.664Z,90.01
2022-10-23T22:17:10.280Z,90.73
2022-10-23T22:19:39.192Z,90.80
2022-10-23T22:22:06.805Z,89.08
2022-10-23T22:24:34.766Z,89.93
2022-10-23T22:27:02.382Z,89.22
2022-10-23T22:29:30.816Z,89.94
2022-10-23T22:31:59.070Z,88.67
2022-10-23T22:37:17.833Z,87.80
2022-10-23T22:39:45.420Z,89.40
2022-10-23T22:42:12.970Z,88.25
2022-10-23T22:44:40.625Z,89.38
2022-10-23T22:47:08.233Z,89.05
2022-10-23T22:49:35.960Z,88.32
2022-10-23T22:52:03.531Z,88.74
2022-10-23T22:54:32.673Z,88.51
2022-10-23T22:57:00.204Z,88.45
2022-10-23T22:59:27.864Z,89.36
2022-10-23T23:01:55.677Z,88.67
2022-10-23T23:04:37.387Z,89.48
2022-10-23T23:07:06.294Z,90.44
2022-10-23T23:09:38.712Z,89.98
2022-10-23T23:12:06.470Z,89.40
2022-10-23T23:14:34.157Z,89.92
2022-10-23T23:17:01.859Z,90.88
2022-10-23T23:19:29.533Z,90.27
2022-10-23T23:21:57.498Z,90.39
2022-10-23T23:24:25.301Z,90.68
2022-10-23T23:26:54.210Z,89.83
2022-10-23T23:29:21.963Z,89.75
2022-10-23T23:31:49.813Z,90.19
2022-10-23T23:34:17.364Z,90.82
2022-10-23T23:36:44.933Z,91.36
2022-10-23T23:39:12.931Z,91.05
2022-10-23T23:41:40.490Z,90.26
2022-10-23T23:44:10.948Z,90.15
2022-10-23T23:46:38.533Z,90.26
2022-10-23T23:49:06.078Z,90.34
2022-10-23T23:51:33.681Z,90.28
2022-10-23T23:54:01.207Z,90.20
2022-10-23T23:56:29.034Z,90.59
2022-10-23T23:58:56.605Z,90.16
